地図

経路データ

SID SEASON NUMBER BASIN SUBBASIN NAME ISO_TIME NATURE LAT LON WMO_WIND WMO_PRES WMO_AGENCY TRACK_TYPE DIST2LAND LANDFALL IFLAG USA_AGENCY USA_ATCF_ID USA_LAT USA_LON USA_RECORD USA_STATUS USA_WIND USA_PRES USA_SSHS USA_R34_NE USA_R34_SE USA_R34_SW USA_R34_NW USA_R50_NE USA_R50_SE USA_R50_SW USA_R50_NW USA_R64_NE USA_R64_SE USA_R64_SW USA_R64_NW USA_POCI USA_ROCI USA_RMW USA_EYE TOKYO_LAT TOKYO_LON TOKYO_GRADE TOKYO_WIND TOKYO_PRES TOKYO_R50_DIR TOKYO_R50_LONG TOKYO_R50_SHORT TOKYO_R30_DIR TOKYO_R30_LONG TOKYO_R30_SHORT TOKYO_LAND CMA_LAT CMA_LON CMA_CAT CMA_WIND CMA_PRES HKO_LAT HKO_LON HKO_CAT HKO_WIND HKO_PRES NEWDELHI_LAT NEWDELHI_LON NEWDELHI_GRADE NEWDELHI_WIND NEWDELHI_PRES NEWDELHI_CI NEWDELHI_DP NEWDELHI_POCI REUNION_LAT REUNION_LON REUNION_TYPE REUNION_WIND REUNION_PRES REUNION_TNUM REUNION_CI REUNION_RMW REUNION_R34_NE REUNION_R34_SE REUNION_R34_SW REUNION_R34_NW REUNION_R50_NE REUNION_R50_SE REUNION_R50_SW REUNION_R50_NW REUNION_R64_NE REUNION_R64_SE REUNION_R64_SW REUNION_R64_NW BOM_LAT BOM_LON BOM_TYPE BOM_WIND BOM_PRES BOM_TNUM BOM_CI BOM_RMW BOM_R34_NE BOM_R34_SE BOM_R34_SW BOM_R34_NW BOM_R50_NE BOM_R50_SE BOM_R50_SW BOM_R50_NW BOM_R64_NE BOM_R64_SE BOM_R64_SW BOM_R64_NW BOM_ROCI BOM_POCI BOM_EYE BOM_POS_METHOD BOM_PRES_METHOD NADI_LAT NADI_LON NADI_CAT NADI_WIND NADI_PRES WELLINGTON_LAT WELLINGTON_LON WELLINGTON_WIND WELLINGTON_PRES DS824_LAT DS824_LON DS824_STAGE DS824_WIND DS824_PRES TD9636_LAT TD9636_LON TD9636_STAGE TD9636_WIND TD9636_PRES TD9635_LAT TD9635_LON TD9635_WIND TD9635_PRES TD9635_ROCI NEUMANN_LAT NEUMANN_LON NEUMANN_CLASS NEUMANN_WIND NEUMANN_PRES MLC_LAT MLC_LON MLC_CLASS MLC_WIND MLC_PRES USA_GUST BOM_GUST BOM_GUST_PER REUNION_GUST REUNION_GUST_PER USA_SEAHGT USA_SEARAD_NE USA_SEARAD_SE USA_SEARAD_SW USA_SEARAD_NW STORM_SPEED STORM_DIR
1984177N10254 1984 41 EP MM DOUGLAS 1984-06-25 00:00:00 TS 10.3000 -106.500 25 hurdat_epa main 952 952 O_________O___ hurdat_epa EP041984 10.3000 -106.500 TD 25 -1 10.3000 -106.500 1 25 9 270
1984177N10254 1984 41 EP MM DOUGLAS 1984-06-25 03:00:00 TS 10.2982 -106.947 main 967 967 P_________P___ EP041984 10.2876 -106.953 TD 25 -1 10.3300 -106.931 1 25 9 271
1984177N10254 1984 41 EP MM DOUGLAS 1984-06-25 06:00:00 TS 10.3145 -107.392 25 hurdat_epa main 989 989 O_________P___ hurdat_epa EP041984 10.3000 -107.400 TD 25 -1 10.3578 -107.370 1 25 9 274
1984177N10254 1984 41 EP MM DOUGLAS 1984-06-25 09:00:00 TS 10.3579 -107.838 main 998 998 P_________P___ EP041984 10.3499 -107.842 TD 25 -1 10.3817 -107.824 1 25 9 275
1984177N10254 1984 41 EP MM DOUGLAS 1984-06-25 12:00:00 TS 10.4000 -108.300 25 hurdat_epa main 1024 1024 O_________O___ hurdat_epa EP041984 10.4000 -108.300 TD 25 -1 10.4000 -108.300 1 25 9 273
1984177N10254 1984 41 EP MM DOUGLAS 1984-06-25 15:00:00 TS 10.4031 -108.790 main 1052 1052 P_________P___ EP041984 10.3999 -108.785 TD 30 -1 10.4127 -108.804 1 27 10 270
1984177N10254 1984 41 EP MM DOUGLAS 1984-06-25 18:00:00 TS 10.4068 -109.307 35 hurdat_epa main 1082 1082 O_________P___ hurdat_epa EP041984 10.4000 -109.300 TS 35 0 10.4274 -109.328 1 30 10 272
1984177N10254 1984 41 EP MM DOUGLAS 1984-06-25 21:00:00 TS 10.4452 -109.848 main 1114 1112 P_________P___ EP041984 10.4424 -109.842 TS 35 0 10.4533 -109.863 1 32 11 275
1984177N10254 1984 41 EP MM DOUGLAS 1984-06-26 00:00:00 TS 10.5000 -110.400 35 hurdat_epa main 1144 1144 O_________O___ hurdat_epa EP041984 10.5000 -110.400 TS 35 0 10.5000 -110.400 2 35 11 275
1984177N10254 1984 41 EP MM DOUGLAS 1984-06-26 03:00:00 TS 10.5397 -110.953 main 1179 1176 P_________P___ EP041984 10.5349 -110.958 TS 37 0 10.5539 -110.937 2 37 11 276
1984177N10254 1984 41 EP MM DOUGLAS 1984-06-26 06:00:00 TS 10.6081 -111.493 40 hurdat_epa main 1201 1201 O_________P___ hurdat_epa EP041984 10.6000 -111.500 TS 40 0 10.6324 -111.473 2 40 11 281
1984177N10254 1984 41 EP MM DOUGLAS 1984-06-26 09:00:00 TS 10.7317 -112.005 main 1225 1223 P_________P___ EP041984 10.7274 -112.008 TS 42 0 10.7446 -111.997 2 42 10 286
1984177N10254 1984 41 EP MM DOUGLAS 1984-06-26 12:00:00 TS 10.9000 -112.500 45 hurdat_epa main 1243 1243 O_________O___ hurdat_epa EP041984 10.9000 -112.500 TS 45 0 10.9000 -112.500 2 45 10 290
1984177N10254 1984 41 EP MM DOUGLAS 1984-06-26 15:00:00 TS 11.0878 -113.004 main 1263 1263 P_________P___ EP041984 11.0775 -113.015 TS 45 0 11.1187 -112.971 2 46 11 294
1984177N10254 1984 41 EP MM DOUGLAS 1984-06-26 18:00:00 TS 11.3193 -113.481 45 hurdat_epa main 1285 1284 O_________P___ hurdat_epa EP041984 11.3000 -113.500 TS 45 0 11.3770 -113.422 2 47 10 301
1984177N10254 1984 41 EP MM DOUGLAS 1984-06-26 21:00:00 TS 11.6059 -113.891 main 1291 1291 P_________P___ EP041984 11.5923 -113.900 TS 47 0 11.6468 -113.862 2 48 10 306
1984177N10254 1984 41 EP MM DOUGLAS 1984-06-27 00:00:00 TS 11.9000 -114.300 50 hurdat_epa main 1299 1299 O_________O___ hurdat_epa EP041984 11.9000 -114.300 TS 50 0 11.9000 -114.300 2 50 10 303
1984177N10254 1984 41 EP MM DOUGLAS 1984-06-27 03:00:00 TS 12.1658 -114.787 main 1300 1297 P_________P___ EP041984 12.1801 -114.800 TS 52 0 12.1230 -114.750 2 52 11 297
1984177N10254 1984 41 EP MM DOUGLAS 1984-06-27 06:00:00 TS 12.3803 -115.275 55 hurdat_epa main 1301 1300 O_________P___ hurdat_epa EP041984 12.4000 -115.300 TS 55 0 12.3213 -115.200 2 55 10 292
1984177N10254 1984 41 EP MM DOUGLAS 1984-06-27 09:00:00 TS 12.5184 -115.693 main 1310 1305 P_________P___ EP041984 12.5298 -115.708 TS 57 0 12.4841 -115.650 2 57 8 285
1984177N10254 1984 41 EP MM DOUGLAS 1984-06-27 12:00:00 TS 12.6000 -116.100 60 hurdat_epa main 1320 1320 O_________O___ hurdat_epa EP041984 12.6000 -116.100 TS 60 0 12.6000 -116.100 2 60 8 280
1984177N10254 1984 41 EP MM DOUGLAS 1984-06-27 15:00:00 TS 12.6586 -116.544 main 1332 1332 P_________P___ EP041984 12.6575 -116.543 TS 62 0 12.6621 -116.550 2 62 9 276
1984177N10254 1984 41 EP MM DOUGLAS 1984-06-27 18:00:00 TS 12.7000 -117.000 65 hurdat_epa main 1360 1360 O_________O___ hurdat_epa EP041984 12.7000 -117.000 HU 65 1 12.7000 -117.000 3 65 9 275
1984177N10254 1984 41 EP MM DOUGLAS 1984-06-27 21:00:00 TS 12.7430 -117.444 main 1383 1380 P_________P___ EP041984 12.7424 -117.443 HU 70 1 12.7450 -117.448 3 70 9 277
1984177N10254 1984 41 EP MM DOUGLAS 1984-06-28 00:00:00 TS 12.8000 -117.900 75 hurdat_epa main 1404 1404 O_________O___ hurdat_epa EP041984 12.8000 -117.900 HU 75 1 12.8000 -117.900 4 75 9 279
1984177N10254 1984 41 EP MM DOUGLAS 1984-06-28 03:00:00 TS 12.8877 -118.390 main 1428 1428 P_________P___ EP041984 12.8925 -118.400 HU 82 1 12.8734 -118.362 4 85 10 281
1984177N10254 1984 41 EP MM DOUGLAS 1984-06-28 06:00:00 TS 12.9914 -118.883 90 hurdat_epa main 1452 1452 O_________P___ hurdat_epa EP041984 13.0000 -118.900 HU 90 2 12.9656 -118.833 4 95 10 282
1984177N10254 1984 41 EP MM DOUGLAS 1984-06-28 09:00:00 TS 13.0937 -119.346 main 1471 1471 P_________P___ EP041984 13.0999 -119.358 HU 102 3 13.0751 -119.313 4 105 9 283
1984177N10254 1984 41 EP MM DOUGLAS 1984-06-28 12:00:00 TS 13.2000 -119.800 115 hurdat_epa main 1499 1499 O_________O___ hurdat_epa EP041984 13.2000 -119.800 HU 115 4 13.2000 -119.800 4 115 9 283
1984177N10254 1984 41 EP MM DOUGLAS 1984-06-28 15:00:00 TS 13.2985 -120.249 main 1520 1520 P_________P___ EP041984 13.2848 -120.235 HU 117 4 13.3394 -120.289 4 117 9 284
1984177N10254 1984 41 EP MM DOUGLAS 1984-06-28 18:00:00 TS 13.4230 -120.721 120 hurdat_epa main 1550 1549 O_________P___ hurdat_epa EP041984 13.4000 -120.700 HU 120 4 13.4921 -120.785 4 120 10 288
1984177N10254 1984 41 EP MM DOUGLAS 1984-06-28 21:00:00 TS 13.6122 -121.254 main 1572 1569 P_________P___ EP041984 13.6000 -121.242 HU 122 4 13.6487 -121.289 4 122 11 290
1984177N10254 1984 41 EP MM DOUGLAS 1984-06-29 00:00:00 TS 13.8000 -121.800 125 hurdat_epa main 1587 1587 O_________O___ hurdat_epa EP041984 13.8000 -121.800 HU 125 4 13.8000 -121.800 4 125 11 286
1984177N10254 1984 41 EP MM DOUGLAS 1984-06-29 03:00:00 TS 13.9124 -122.304 main 1612 1612 P_________P___ EP041984 13.9073 -122.300 HU 122 4 13.9278 -122.314 4 122 10 282
1984177N10254 1984 41 EP MM DOUGLAS 1984-06-29 06:00:00 TS 14.0124 -122.809 120 hurdat_epa main 1639 1639 O_________P___ hurdat_epa EP041984 14.0000 -122.800 HU 120 4 14.0495 -122.835 4 120 10 283
1984177N10254 1984 41 EP MM DOUGLAS 1984-06-29 09:00:00 TS 14.1497 -123.348 main 1667 1666 P_________P___ EP041984 14.1424 -123.343 HU 117 4 14.1715 -123.364 4 117 11 285
1984177N10254 1984 41 EP MM DOUGLAS 1984-06-29 12:00:00 TS 14.3000 -123.900 115 hurdat_epa main 1695 1695 O_________O___ hurdat_epa EP041984 14.3000 -123.900 HU 115 4 14.3000 -123.900 4 115 11 286
1984177N10254 1984 41 EP MM DOUGLAS 1984-06-29 15:00:00 TS 14.4501 -124.450 main 1726 1726 P_________P___ EP041984 14.4499 -124.450 HU 115 4 14.4508 -124.451 4 115 11 286
1984177N10254 1984 41 EP MM DOUGLAS 1984-06-29 18:00:00 TS 14.6018 -125.002 115 hurdat_epa main 1757 1757 O_________P___ hurdat_epa EP041984 14.6000 -125.000 HU 115 4 14.6073 -125.007 4 115 11 286
1984177N10254 1984 41 EP MM DOUGLAS 1984-06-29 21:00:00 TS 14.7581 -125.553 main 1791 1791 P_________P___ EP041984 14.7574 -125.550 HU 115 4 14.7602 -125.560 4 115 11 286
1984177N10254 1984 41 EP MM DOUGLAS 1984-06-30 00:00:00 TS 14.9000 -126.100 115 hurdat_epa main 1825 1825 O_________O___ hurdat_epa EP041984 14.9000 -126.100 HU 115 4 14.9000 -126.100 4 115 11 283
1984177N10254 1984 41 EP MM DOUGLAS 1984-06-30 03:00:00 TS 15.0071 -126.658 main 1863 1863 P_________P___ EP041984 15.0075 -126.665 HU 115 4 15.0060 -126.635 4 112 11 281
1984177N10254 1984 41 EP MM DOUGLAS 1984-06-30 06:00:00 TS 15.1000 -127.188 115 hurdat_epa main 1889 1889 O_________P___ hurdat_epa EP041984 15.1000 -127.200 HU 115 4 15.0998 -127.153 4 110 10 281
1984177N10254 1984 41 EP MM DOUGLAS 1984-06-30 09:00:00 TS 15.1927 -127.671 main 1915 1915 P_________P___ EP041984 15.1924 -127.680 HU 110 3 15.1936 -127.644 4 107 9 283
1984177N10254 1984 41 EP MM DOUGLAS 1984-06-30 12:00:00 TS 15.3000 -128.100 105 hurdat_epa main 1935 1935 O_________O___ hurdat_epa EP041984 15.3000 -128.100 HU 105 3 15.3000 -128.100 4 105 8 288
1984177N10254 1984 41 EP MM DOUGLAS 1984-06-30 15:00:00 TS 15.4385 -128.474 main 1956 1948 P_________P___ EP041984 15.4423 -128.458 HU 102 3 15.4271 -128.523 4 102 8 293
1984177N10254 1984 41 EP MM DOUGLAS 1984-06-30 18:00:00 TS 15.5924 -128.828 100 hurdat_epa main 1962 1962 O_________P___ hurdat_epa EP041984 15.6000 -128.800 HU 100 3 15.5695 -128.910 4 100 8 293
1984177N10254 1984 41 EP MM DOUGLAS 1984-06-30 21:00:00 TS 15.7387 -129.222 main 1984 1984 P_________P___ EP041984 15.7425 -129.208 HU 97 3 15.7272 -129.267 4 97 8 292
1984177N10254 1984 41 EP MM DOUGLAS 1984-07-01 00:00:00 TS 15.9000 -129.600 95 hurdat_epa main 1999 1999 O_________O___ hurdat_epa EP041984 15.9000 -129.600 HU 95 2 15.9000 -129.600 4 95 8 298
1984177N10254 1984 41 EP MM DOUGLAS 1984-07-01 03:00:00 TS 16.0916 -129.915 main 2007 2007 P_________P___ EP041984 16.0924 -129.915 HU 95 2 16.0893 -129.914 4 93 7 305
1984177N10254 1984 41 EP MM DOUGLAS 1984-07-01 06:00:00 TS 16.2980 -130.202 95 hurdat_epa main 2016 2016 O_________P___ hurdat_epa EP041984 16.3000 -130.200 HU 95 2 16.2920 -130.208 4 92 7 306
1984177N10254 1984 41 EP MM DOUGLAS 1984-07-01 09:00:00 TS 16.4996 -130.494 main 2025 2025 P_________P___ EP041984 16.4999 -130.493 HU 92 2 16.4987 -130.498 4 91 7 305
1984177N10254 1984 41 EP MM DOUGLAS 1984-07-01 12:00:00 TS 16.7000 -130.800 90 hurdat_epa main 2035 2035 O_________O___ hurdat_epa EP041984 16.7000 -130.800 HU 90 2 16.7000 -130.800 4 90 7 304
1984177N10254 1984 41 EP MM DOUGLAS 1984-07-01 15:00:00 TS 16.9051 -131.133 main 2045 2045 P_________P___ EP041984 16.9075 -131.143 HU 82 1 16.8979 -131.103 4 83 8 301
1984177N10254 1984 41 EP MM DOUGLAS 1984-07-01 18:00:00 TS 17.0967 -131.481 75 hurdat_epa main 2064 2064 O_________P___ hurdat_epa EP041984 17.1000 -131.500 HU 75 1 17.0867 -131.425 4 77 7 298
1984177N10254 1984 41 EP MM DOUGLAS 1984-07-01 21:00:00 TS 17.2572 -131.811 main 2076 2076 P_________P___ EP041984 17.2573 -131.820 HU 70 1 17.2571 -131.784 4 71 8 294
1984177N10254 1984 41 EP MM DOUGLAS 1984-07-02 00:00:00 TS 17.4000 -132.200 65 hurdat_epa main 2104 2104 O_________O___ hurdat_epa EP041984 17.4000 -132.200 HU 65 1 17.4000 -132.200 4 65 9 289
1984177N10254 1984 41 EP MM DOUGLAS 1984-07-02 03:00:00 TS 17.5575 -132.714 main 2134 2134 P_________P___ EP041984 17.5726 -132.720 HU 65 1 17.5122 -132.697 4 62 11 285
1984177N10254 1984 41 EP MM DOUGLAS 1984-07-02 06:00:00 TS 17.6738 -133.287 65 hurdat_epa main 2180 2180 O_________P___ hurdat_epa EP041984 17.7000 -133.300 HU 65 1 17.5954 -133.248 4 60 11 278
1984177N10254 1984 41 EP MM DOUGLAS 1984-07-02 09:00:00 TS 17.7001 -133.850 main 2221 2158 P_________P___ EP041984 17.7149 -133.858 HU 60 0 17.6558 -133.825 4 57 11 271
1984177N10254 1984 41 EP MM DOUGLAS 1984-07-02 12:00:00 TS 17.7000 -134.400 55 hurdat_epa main 2158 2105 O_________O___ hurdat_epa EP041984 17.7000 -134.400 TS 55 0 17.7000 -134.400 2 55 10 273
1984177N10254 1984 41 EP MM DOUGLAS 1984-07-02 15:00:00 TS 17.7470 -134.906 main 2105 2051 P_________P___ EP041984 17.7498 -134.900 TS 50 0 17.7387 -134.924 2 50 10 275
1984177N10254 1984 41 EP MM DOUGLAS 1984-07-02 18:00:00 TS 17.7910 -135.411 45 hurdat_epa main 2051 1999 O_________P___ hurdat_epa EP041984 17.8000 -135.400 TS 45 0 17.7641 -135.443 2 45 10 273
1984177N10254 1984 41 EP MM DOUGLAS 1984-07-02 21:00:00 TS 17.8012 -135.948 main 1999 1936 P_________P___ EP041984 17.8074 -135.943 TS 40 0 17.7824 -135.965 2 40 10 270
1984177N10254 1984 41 EP MM DOUGLAS 1984-07-03 00:00:00 TS 17.8000 -136.500 35 hurdat_epa main 1936 1884 O_________O___ hurdat_epa EP041984 17.8000 -136.500 TS 35 0 17.8000 -136.500 2 35 10 270
1984177N10254 1984 41 EP MM DOUGLAS 1984-07-03 03:00:00 TS 17.7973 -137.045 main 1884 1821 P_________P___ EP041984 17.7923 -137.043 TS 32 -1 17.8123 -137.053 2 33 11 270
1984177N10254 1984 41 EP MM DOUGLAS 1984-07-03 06:00:00 TS 17.8067 -137.605 30 hurdat_epa main 1821 1758 O_________P___ hurdat_epa EP041984 17.8000 -137.600 TD 30 -1 17.8268 -137.621 2 32 11 272
1984177N10254 1984 41 EP MM DOUGLAS 1984-07-03 09:00:00 TS 17.8394 -138.195 main 1758 1694 P_________P___ EP041984 17.8349 -138.193 TD 30 -1 17.8529 -138.203 2 31 11 275
1984177N10254 1984 41 EP MM DOUGLAS 1984-07-03 12:00:00 TS 17.9000 -138.800 30 hurdat_epa main 1694 1629 O_________O___ hurdat_epa EP041984 17.9000 -138.800 TD 30 -1 17.9000 -138.800 1 30 12 277
1984177N10254 1984 41 EP MM DOUGLAS 1984-07-03 15:00:00 TS 17.9867 -139.400 main 1629 1565 P_________P___ EP041984 17.9922 -139.393 TD 30 -1 17.9702 -139.423 1 30 12 279
1984177N10254 1984 41 EP CP DOUGLAS 1984-07-03 18:00:00 TS 18.0853 -140.025 30 hurdat_epa main 1565 1500 O_________P___ hurdat_epa EP041984 18.1000 -140.000 TD 30 -1 18.0624 -140.058 1 30 12 279
1984177N10254 1984 41 EP CP DOUGLAS 1984-07-03 21:00:00 TS 18.1752 -140.686 main 1490 1426 P_________P___ EP041984 18.2000 -140.658 TD 30 -1 18.1733 -140.689 1 30 13 278
1984177N10254 1984 41 EP CP DOUGLAS 1984-07-04 00:00:00 TS 18.2684 -141.332 30 hurdat_epa main 1426 1361 O_________O___ hurdat_epa EP041984 18.3000 -141.300 TD 30 -1 18.3000 -141.300 1 30 12 279
1984177N10254 1984 41 EP CP DOUGLAS 1984-07-04 03:00:00 TS 18.3639 -141.916 main 1361 1308 P_________P___ EP041984 18.3847 -141.865 TD 27 -1 18.4306 -141.864 1 28 11 282
1984177N10254 1984 41 EP CP DOUGLAS 1984-07-04 06:00:00 TS 18.4952 -142.462 25 hurdat_epa main 1297 1242 O_________P___ hurdat_epa EP041984 18.5000 -142.400 TD 25 -1 18.5762 -142.408 1 27 11 287
1984177N10254 1984 41 EP CP DOUGLAS 1984-07-04 09:00:00 TS 18.6705 -142.997 main 1242 1189 P_________P___ EP041984 18.6923 -142.942 TD 25 -1 18.7337 -142.948 1 26 11 290
1984177N10254 1984 41 EP CP DOUGLAS 1984-07-04 12:00:00 TS 18.8600 -143.540 25 hurdat_epa main 1188 1124 O_________O___ hurdat_epa EP041984 18.9000 -143.500 TD 25 -1 18.9000 -143.500 1 25 11 288
1984177N10254 1984 41 EP CP DOUGLAS 1984-07-04 15:00:00 TS 19.0245 -144.130 main 1124 1060 P_________P___ EP041984 19.0499 -144.093 TD 25 -1 19.0806 -144.138 1 25 12 286
1984177N10254 1984 41 EP CP DOUGLAS 1984-07-04 18:00:00 TS 19.1932 -144.736 25 hurdat_epa main 1060 995 O_________P___ hurdat_epa EP041984 19.2000 -144.700 TD 25 -1 19.2660 -144.782 1 25 12 288
1984177N10254 1984 41 EP CP DOUGLAS 1984-07-04 21:00:00 TS 19.3963 -145.373 main 985 932 P_________P___ EP041984 19.4077 -145.345 TD 25 -1 19.4433 -145.385 1 25 12 289
1984177N10254 1984 41 EP CP DOUGLAS 1984-07-05 00:00:00 TS 19.5800 -145.920 25 hurdat_epa main 932 890 O_________O___ hurdat_epa EP041984 19.6000 -145.900 TD 25 -1 19.6000 -145.900 1 25 9 289
1984177N10254 1984 41 EP CP DOUGLAS 1984-07-05 03:00:00 TS 19.6928 -146.265 main 890 869 P_________P___ EP041984 19.7147 -146.253 TD 25 -1 19.7204 -146.273 1 25 6 290
1984177N10254 1984 41 EP CP DOUGLAS 1984-07-05 06:00:00 TS 19.7842 -146.511 25 hurdat_epa main 869 838 O_________P___ hurdat_epa EP041984 19.8000 -146.500 TD 25 -1 19.8211 -146.556 1 25 5 294
1984177N10254 1984 41 EP CP DOUGLAS 1984-07-05 09:00:00 TS 19.9022 -146.772 main 838 818 P_________P___ EP041984 19.8999 -146.758 TD 25 -1 19.9113 -146.785 1 25 5 296
1984177N10254 1984 41 EP CP DOUGLAS 1984-07-05 12:00:00 TS 20.0200 -147.020 25 hurdat_epa main 818 787 O_________O___ hurdat_epa EP041984 20.0000 -147.000 TD 25 -1 20.0000 -147.000 1 25 5 295
1984177N10254 1984 41 EP CP DOUGLAS 1984-07-05 15:00:00 TS 20.1261 -147.282 main 787 767 P_________P___ EP041984 20.1000 -147.250 TD 25 -1 20.1081 -147.277 1 25 5 293
1984177N10254 1984 41 EP CP DOUGLAS 1984-07-05 18:00:00 TS 20.2230 -147.529 25 hurdat_epa main 767 747 O_________P___ hurdat_epa EP041984 20.2000 -147.500 TD 25 -1 20.2150 -147.545 1 25 5 293
1984177N10254 1984 41 EP CP DOUGLAS 1984-07-05 21:00:00 TS 20.3189 -147.762 main 737 717 P_________P___ EP041984 20.3075 -147.765 TD 25 -1 20.3144 -147.790 1 25 4 294
1984177N10254 1984 41 EP CP DOUGLAS 1984-07-06 00:00:00 TS 20.4000 -147.960 25 hurdat_epa main 717 707 O_________O___ hurdat_epa EP041984 20.4000 -148.000 TD 25 -1 20.4000 -148.000 1 25 4 293
1984177N10254 1984 41 EP CP DOUGLAS 1984-07-06 03:00:00 TS 20.4572 -148.116 main 708 698 P_________P___ EP041984 20.4575 -148.173 TD 25 -1 20.4635 -148.165 1 25 3 291
1984177N10254 1984 41 EP CP DOUGLAS 1984-07-06 06:00:00 TS 20.5028 -148.251 25 hurdat_epa main 688 677 O_________P___ hurdat_epa EP041984 20.5000 -148.300 TD 25 -1 20.5134 -148.295 1 25 3 291
1984177N10254 1984 41 EP CP DOUGLAS 1984-07-06 09:00:00 TS 20.5515 -148.372 main 679 669 P_________P___ EP041984 20.5500 -148.408 TD 25 -1 20.5567 -148.402 1 25 2 295
1984177N10254 1984 41 EP CP DOUGLAS 1984-07-06 12:00:00 TS 20.6000 -148.477 25 hurdat_epa main 669 659 O_________O___ hurdat_epa EP041984 20.6000 -148.500 TD 25 -1 20.6000 -148.500 1 25 2 295
1984177N10254 1984 41 EP CP DOUGLAS 1984-07-06 15:00:00 TS 20.6496 -148.598 main 659 650 P_________P___ EP041984 20.6500 -148.597 TD 25 -1 20.6483 -148.599 1 25 2 296
1984177N10254 1984 41 EP CP DOUGLAS 1984-07-06 18:00:00 TS 20.7000 -148.700 25 hurdat_epa main 650 O_________O___ hurdat_epa EP041984 20.7000 -148.700 TD 25 -1 20.7000 -148.700 1 25 2 297

IBTrACS Databaseについて

本データベースは、米国NOAAが公開する1842年以降の世界の熱帯低気圧のベストトラックデータアーカイブInternational Best Track Archive for Climate Stewardship (IBTrACS)を、ウェブで閲覧しやすい形式に変換したものです。

最終更新日:2021-12-06